sensor_id;sensor_type;location;lat;lon;timestamp;pressure;altitude;pressure_sealevel;temperature;humidity
65013;BME280;51715;39.432;-77.518;2024-01-10T00:00:10;97210.96;;;13.04;60.38
65013;BME280;51715;39.432;-77.518;2024-01-10T00:02:39;97219.40;;;13.73;60.03
65013;BME280;51715;39.432;-77.518;2024-01-10T00:05:08;97214.79;;;14.22;58.69
65013;BME280;51715;39.432;-77.518;2024-01-10T00:07:38;97213.94;;;14.06;58.62
65013;BME280;51715;39.432;-77.518;2024-01-10T00:10:07;97209.99;;;14.85;56.55
65013;BME280;51715;39.432;-77.518;2024-01-10T00:12:37;97221.98;;;15.60;55.82
65013;BME280;51715;39.432;-77.518;2024-01-10T00:15:07;97217.37;;;14.98;56.65
65013;BME280;51715;39.432;-77.518;2024-01-10T00:17:34;97191.21;;;15.44;55.29
65013;BME280;51715;39.432;-77.518;2024-01-10T00:20:02;97195.75;;;14.95;55.94
65013;BME280;51715;39.432;-77.518;2024-01-10T00:22:32;97217.53;;;15.26;55.13
65013;BME280;51715;39.432;-77.518;2024-01-10T00:25:00;97228.93;;;15.70;54.14
65013;BME280;51715;39.432;-77.518;2024-01-10T00:27:29;97247.92;;;15.00;54.80
65013;BME280;51715;39.432;-77.518;2024-01-10T00:29:59;97227.37;;;14.61;56.25
65013;BME280;51715;39.432;-77.518;2024-01-10T00:32:28;97192.68;;;14.99;55.58
65013;BME280;51715;39.432;-77.518;2024-01-10T00:34:59;97154.94;;;15.35;55.25
65013;BME280;51715;39.432;-77.518;2024-01-10T00:37:27;97150.58;;;15.63;54.48
65013;BME280;51715;39.432;-77.518;2024-01-10T00:39:56;97044.64;;;15.24;55.68
65013;BME280;51715;39.432;-77.518;2024-01-10T00:42:25;96942.13;;;14.43;57.18
65013;BME280;51715;39.432;-77.518;2024-01-10T00:44:52;96916.13;;;13.13;60.01
65013;BME280;51715;39.432;-77.518;2024-01-10T00:47:21;96891.01;;;11.75;66.29
65013;BME280;51715;39.432;-77.518;2024-01-10T00:49:49;96852.26;;;11.39;68.73
65013;BME280;51715;39.432;-77.518;2024-01-10T00:52:17;96822.77;;;10.83;69.72
65013;BME280;51715;39.432;-77.518;2024-01-10T00:54:46;96806.56;;;10.42;72.28
65013;BME280;51715;39.432;-77.518;2024-01-10T00:57:15;96805.29;;;10.96;70.74
65013;BME280;51715;39.432;-77.518;2024-01-10T00:59:46;96751.12;;;10.98;71.24
65013;BME280;51715;39.432;-77.518;2024-01-10T01:02:15;96754.38;;;11.36;70.69
65013;BME280;51715;39.432;-77.518;2024-01-10T01:04:43;96747.80;;;11.37;70.14
65013;BME280;51715;39.432;-77.518;2024-01-10T01:07:12;96667.54;;;11.24;69.58
65013;BME280;51715;39.432;-77.518;2024-01-10T01:09:43;96616.61;;;11.32;70.64
65013;BME280;51715;39.432;-77.518;2024-01-10T01:12:11;96567.96;;;10.38;73.79
65013;BME280;51715;39.432;-77.518;2024-01-10T01:14:39;96512.36;;;10.03;75.68
65013;BME280;51715;39.432;-77.518;2024-01-10T01:17:07;96564.46;;;10.76;73.07
65013;BME280;51715;39.432;-77.518;2024-01-10T01:20:00;96516.55;;;10.27;74.21
65013;BME280;51715;39.432;-77.518;2024-01-10T01:22:29;96398.79;;;10.24;75.88
65013;BME280;51715;39.432;-77.518;2024-01-10T01:24:58;96474.66;;;10.50;75.45
65013;BME280;51715;39.432;-77.518;2024-01-10T01:27:29;96490.20;;;9.94;75.35
65013;BME280;51715;39.432;-77.518;2024-01-10T01:29:58;96546.17;;;10.93;74.00
65013;BME280;51715;39.432;-77.518;2024-01-10T01:32:30;96587.10;;;11.50;71.82
65013;BME280;51715;39.432;-77.518;2024-01-10T01:34:58;96591.58;;;12.18;68.79
65013;BME280;51715;39.432;-77.518;2024-01-10T01:37:27;96600.06;;;12.51;66.23
65013;BME280;51715;39.432;-77.518;2024-01-10T01:40:01;96627.12;;;12.78;65.19
65013;BME280;51715;39.432;-77.518;2024-01-10T01:42:31;96635.18;;;12.96;65.17
65013;BME280;51715;39.432;-77.518;2024-01-10T01:44:59;96596.77;;;12.19;67.11
65013;BME280;51715;39.432;-77.518;2024-01-10T01:47:28;96621.65;;;12.58;67.09
65013;BME280;51715;39.432;-77.518;2024-01-10T01:49:57;96621.29;;;12.64;66.66
65013;BME280;51715;39.432;-77.518;2024-01-10T01:52:27;96630.69;;;13.20;64.90
65013;BME280;51715;39.432;-77.518;2024-01-10T01:54:58;96623.47;;;12.80;65.54
65013;BME280;51715;39.432;-77.518;2024-01-10T01:57:27;96634.89;;;12.94;66.39
65013;BME280;51715;39.432;-77.518;2024-01-10T01:59:58;96619.91;;;13.56;63.90
65013;BME280;51715;39.432;-77.518;2024-01-10T02:02:29;96631.35;;;14.64;61.23
65013;BME280;51715;39.432;-77.518;2024-01-10T02:05:03;96634.15;;;14.79;59.84
65013;BME280;51715;39.432;-77.518;2024-01-10T02:07:31;96646.14;;;14.67;60.05
65013;BME280;51715;39.432;-77.518;2024-01-10T02:10:00;96656.00;;;14.64;59.96
65013;BME280;51715;39.432;-77.518;2024-01-10T02:12:29;96641.90;;;14.77;60.26
65013;BME280;51715;39.432;-77.518;2024-01-10T02:14:58;96637.51;;;15.09;58.72
65013;BME280;51715;39.432;-77.518;2024-01-10T02:17:27;96659.72;;;15.13;58.34
65013;BME280;51715;39.432;-77.518;2024-01-10T02:20:10;96672.57;;;14.97;59.77
65013;BME280;51715;39.432;-77.518;2024-01-10T02:22:38;96671.89;;;14.82;58.84
65013;BME280;51715;39.432;-77.518;2024-01-10T02:25:07;96644.03;;;16.01;56.34
65013;BME280;51715;39.432;-77.518;2024-01-10T02:27:37;96647.83;;;16.07;55.67
65013;BME280;51715;39.432;-77.518;2024-01-10T02:30:07;96644.35;;;14.70;58.85
65013;BME280;51715;39.432;-77.518;2024-01-10T02:32:35;96623.52;;;15.48;57.45
65013;BME280;51715;39.432;-77.518;2024-01-10T02:35:04;96628.35;;;15.16;57.79
65013;BME280;51715;39.432;-77.518;2024-01-10T02:37:32;96636.30;;;15.05;58.38
65013;BME280;51715;39.432;-77.518;2024-01-10T02:39:59;96636.98;;;14.07;60.26
65013;BME280;51715;39.432;-77.518;2024-01-10T02:42:27;96628.01;;;14.56;59.87
65013;BME280;51715;39.432;-77.518;2024-01-10T02:44:55;96614.34;;;14.95;59.08
65013;BME280;51715;39.432;-77.518;2024-01-10T02:47:24;96606.75;;;15.28;57.49
65013;BME280;51715;39.432;-77.518;2024-01-10T02:49:53;96598.09;;;14.93;58.24
65013;BME280;51715;39.432;-77.518;2024-01-10T02:52:24;96593.07;;;15.83;56.04
65013;BME280;51715;39.432;-77.518;2024-01-10T02:54:52;96587.51;;;15.67;55.55
65013;BME280;51715;39.432;-77.518;2024-01-10T02:57:21;96583.32;;;15.87;56.05
65013;BME280;51715;39.432;-77.518;2024-01-10T02:59:49;96581.88;;;16.12;55.51
65013;BME280;51715;39.432;-77.518;2024-01-10T03:02:17;96583.81;;;16.43;54.23
65013;BME280;51715;39.432;-77.518;2024-01-10T03:04:45;96570.52;;;16.76;53.45
65013;BME280;51715;39.432;-77.518;2024-01-10T03:07:13;96553.05;;;16.93;52.51
65013;BME280;51715;39.432;-77.518;2024-01-10T03:09:42;96538.66;;;16.85;52.54
65013;BME280;51715;39.432;-77.518;2024-01-10T03:12:12;96531.77;;;16.84;52.31
65013;BME280;51715;39.432;-77.518;2024-01-10T03:14:42;96518.32;;;16.71;51.67
65013;BME280;51715;39.432;-77.518;2024-01-10T03:17:10;96517.07;;;17.10;51.21
65013;BME280;51715;39.432;-77.518;2024-01-10T03:19:39;96513.71;;;16.94;51.70
65013;BME280;51715;39.432;-77.518;2024-01-10T03:22:08;96500.31;;;16.94;51.20
65013;BME280;51715;39.432;-77.518;2024-01-10T03:24:37;96504.44;;;17.04;50.63
65013;BME280;51715;39.432;-77.518;2024-01-10T03:27:06;96522.13;;;17.25;50.42
65013;BME280;51715;39.432;-77.518;2024-01-10T03:29:33;96527.24;;;17.08;50.41
65013;BME280;51715;39.432;-77.518;2024-01-10T03:32:02;96528.76;;;17.29;50.22
65013;BME280;51715;39.432;-77.518;2024-01-10T03:34:30;96526.07;;;17.22;50.02
65013;BME280;51715;39.432;-77.518;2024-01-10T03:36:58;96524.23;;;17.41;49.89
65013;BME280;51715;39.432;-77.518;2024-01-10T03:39:27;96524.36;;;17.34;50.14
65013;BME280;51715;39.432;-77.518;2024-01-10T03:41:56;96522.45;;;17.10;50.14
65013;BME280;51715;39.432;-77.518;2024-01-10T03:44:26;96527.68;;;17.13;49.90
65013;BME280;51715;39.432;-77.518;2024-01-10T03:46:54;96527.23;;;17.24;49.99
65013;BME280;51715;39.432;-77.518;2024-01-10T03:49:23;96525.85;;;16.93;49.97
65013;BME280;51715;39.432;-77.518;2024-01-10T03:51:51;96510.52;;;16.63;50.54
65013;BME280;51715;39.432;-77.518;2024-01-10T03:54:19;96517.02;;;16.13;51.93
65013;BME280;51715;39.432;-77.518;2024-01-10T03:56:47;96509.21;;;16.18;51.17
65013;BME280;51715;39.432;-77.518;2024-01-10T03:59:15;96515.83;;;16.28;50.33
65013;BME280;51715;39.432;-77.518;2024-01-10T04:01:43;96509.08;;;15.94;50.89
65013;BME280;51715;39.432;-77.518;2024-01-10T04:04:11;96509.59;;;16.39;50.37
65013;BME280;51715;39.432;-77.518;2024-01-10T04:06:41;96499.89;;;16.24;50.73
65013;BME280;51715;39.432;-77.518;2024-01-10T04:09:09;96487.17;;;15.48;51.62
65013;BME280;51715;39.432;-77.518;2024-01-10T04:11:37;96484.92;;;15.11;52.45
65013;BME280;51715;39.432;-77.518;2024-01-10T04:14:06;96482.06;;;14.97;52.96
65013;BME280;51715;39.432;-77.518;2024-01-10T04:16:34;96486.83;;;15.38;52.13
65013;BME280;51715;39.432;-77.518;2024-01-10T04:19:03;96494.22;;;14.39;52.34
65013;BME280;51715;39.432;-77.518;2024-01-10T04:21:33;96487.99;;;14.39;52.79
65013;BME280;51715;39.432;-77.518;2024-01-10T04:24:01;96491.08;;;14.64;52.40
65013;BME280;51715;39.432;-77.518;2024-01-10T04:26:31;96489.28;;;14.46;52.57
65013;BME280;51715;39.432;-77.518;2024-01-10T04:29:00;96488.94;;;14.75;52.36
65013;BME280;51715;39.432;-77.518;2024-01-10T04:31:28;96495.79;;;15.03;51.92
65013;BME280;51715;39.432;-77.518;2024-01-10T04:33:56;96492.77;;;14.71;51.55
65013;BME280;51715;39.432;-77.518;2024-01-10T04:36:26;96492.77;;;15.21;51.17
65013;BME280;51715;39.432;-77.518;2024-01-10T04:38:54;96496.48;;;14.83;52.24
65013;BME280;51715;39.432;-77.518;2024-01-10T04:41:25;96493.24;;;15.29;51.67
65013;BME280;51715;39.432;-77.518;2024-01-10T04:43:53;96492.51;;;15.29;51.33
65013;BME280;51715;39.432;-77.518;2024-01-10T04:46:21;96500.81;;;15.00;51.20
65013;BME280;51715;39.432;-77.518;2024-01-10T04:48:49;96504.41;;;15.08;51.32
65013;BME280;51715;39.432;-77.518;2024-01-10T04:51:18;96504.83;;;15.01;51.53
65013;BME280;51715;39.432;-77.518;2024-01-10T04:53:47;96507.59;;;14.82;52.36
65013;BME280;51715;39.432;-77.518;2024-01-10T04:56:15;96511.30;;;15.23;51.86
65013;BME280;51715;39.432;-77.518;2024-01-10T04:58:44;96514.50;;;15.34;51.49
65013;BME280;51715;39.432;-77.518;2024-01-10T05:04:04;96508.84;;;15.69;49.24
65013;BME280;51715;39.432;-77.518;2024-01-10T05:06:33;96511.74;;;15.61;48.72
65013;BME280;51715;39.432;-77.518;2024-01-10T05:09:02;96526.32;;;15.64;48.43
65013;BME280;51715;39.432;-77.518;2024-01-10T05:11:30;96529.61;;;15.93;48.35
65013;BME280;51715;39.432;-77.518;2024-01-10T05:13:58;96536.99;;;16.27;48.64
65013;BME280;51715;39.432;-77.518;2024-01-10T05:16:27;96543.43;;;15.57;49.21
65013;BME280;51715;39.432;-77.518;2024-01-10T05:18:55;96544.78;;;15.97;49.48
65013;BME280;51715;39.432;-77.518;2024-01-10T05:21:23;96546.58;;;15.93;49.57
65013;BME280;51715;39.432;-77.518;2024-01-10T05:23:52;96558.87;;;15.45;49.57
65013;BME280;51715;39.432;-77.518;2024-01-10T05:26:20;96564.60;;;15.60;49.76
65013;BME280;51715;39.432;-77.518;2024-01-10T05:28:49;96567.61;;;15.00;50.31
65013;BME280;51715;39.432;-77.518;2024-01-10T05:31:17;96572.00;;;13.92;51.74
65013;BME280;51715;39.432;-77.518;2024-01-10T05:33:45;96588.50;;;13.99;51.80
65013;BME280;51715;39.432;-77.518;2024-01-10T05:36:13;96597.21;;;13.88;51.41
65013;BME280;51715;39.432;-77.518;2024-01-10T05:38:41;96602.91;;;13.83;50.73
65013;BME280;51715;39.432;-77.518;2024-01-10T05:41:11;96619.69;;;13.80;50.98
65013;BME280;51715;39.432;-77.518;2024-01-10T05:43:39;96620.91;;;13.48;51.02
65013;BME280;51715;39.432;-77.518;2024-01-10T05:46:06;96624.91;;;13.66;51.60
65013;BME280;51715;39.432;-77.518;2024-01-10T05:48:34;96626.04;;;12.79;52.66
65013;BME280;51715;39.432;-77.518;2024-01-10T05:51:03;96619.87;;;12.88;52.62
65013;BME280;51715;39.432;-77.518;2024-01-10T05:53:31;96619.45;;;13.21;51.84
65013;BME280;51715;39.432;-77.518;2024-01-10T05:55:59;96620.12;;;13.15;51.78
65013;BME280;51715;39.432;-77.518;2024-01-10T05:58:28;96626.76;;;12.98;51.23
65013;BME280;51715;39.432;-77.518;2024-01-10T06:01:02;96627.09;;;11.50;52.40
65013;BME280;51715;39.432;-77.518;2024-01-10T06:03:30;96626.85;;;11.35;53.21
65013;BME280;51715;39.432;-77.518;2024-01-10T06:05:58;96616.43;;;11.42;52.54
65013;BME280;51715;39.432;-77.518;2024-01-10T06:08:26;96620.09;;;11.87;52.33
65013;BME280;51715;39.432;-77.518;2024-01-10T06:10:53;96628.72;;;11.54;51.97
65013;BME280;51715;39.432;-77.518;2024-01-10T06:13:21;96632.53;;;11.44;52.19
65013;BME280;51715;39.432;-77.518;2024-01-10T06:15:49;96631.76;;;11.71;51.12
65013;BME280;51715;39.432;-77.518;2024-01-10T06:18:18;96630.64;;;11.43;50.75
65013;BME280;51715;39.432;-77.518;2024-01-10T06:20:46;96642.09;;;11.77;50.74
65013;BME280;51715;39.432;-77.518;2024-01-10T06:23:14;96641.76;;;11.44;50.21
65013;BME280;51715;39.432;-77.518;2024-01-10T06:25:47;96647.74;;;11.40;50.40
65013;BME280;51715;39.432;-77.518;2024-01-10T06:28:15;96645.25;;;11.54;49.71
65013;BME280;51715;39.432;-77.518;2024-01-10T06:30:44;96654.21;;;11.69;49.41
65013;BME280;51715;39.432;-77.518;2024-01-10T06:33:14;96655.29;;;11.47;49.95
65013;BME280;51715;39.432;-77.518;2024-01-10T06:35:43;96657.86;;;11.54;49.00
65013;BME280;51715;39.432;-77.518;2024-01-10T06:38:13;96661.07;;;11.12;48.70
65013;BME280;51715;39.432;-77.518;2024-01-10T06:40:41;96662.10;;;10.32;49.58
65013;BME280;51715;39.432;-77.518;2024-01-10T06:43:10;96667.96;;;10.00;49.65
65013;BME280;51715;39.432;-77.518;2024-01-10T06:45:38;96680.95;;;9.56;49.77
65013;BME280;51715;39.432;-77.518;2024-01-10T06:48:07;96689.16;;;10.01;49.69
65013;BME280;51715;39.432;-77.518;2024-01-10T06:50:36;96699.62;;;10.11;47.86
65013;BME280;51715;39.432;-77.518;2024-01-10T06:53:05;96703.65;;;10.07;48.19
65013;BME280;51715;39.432;-77.518;2024-01-10T06:55:33;96709.64;;;9.46;48.11
65013;BME280;51715;39.432;-77.518;2024-01-10T06:58:01;96713.09;;;9.93;48.40
65013;BME280;51715;39.432;-77.518;2024-01-10T07:00:29;96717.76;;;9.00;48.45
65013;BME280;51715;39.432;-77.518;2024-01-10T07:03:01;96721.87;;;9.10;48.12
65013;BME280;51715;39.432;-77.518;2024-01-10T07:05:29;96716.58;;;8.29;48.20
65013;BME280;51715;39.432;-77.518;2024-01-10T07:07:58;96730.06;;;8.35;48.70
65013;BME280;51715;39.432;-77.518;2024-01-10T07:10:26;96730.92;;;9.08;48.19
65013;BME280;51715;39.432;-77.518;2024-01-10T07:12:55;96739.04;;;9.36;47.84
65013;BME280;51715;39.432;-77.518;2024-01-10T07:15:23;96741.23;;;9.12;46.76
65013;BME280;51715;39.432;-77.518;2024-01-10T07:17:52;96750.36;;;9.45;45.95
65013;BME280;51715;39.432;-77.518;2024-01-10T07:20:21;96754.57;;;8.24;46.35
65013;BME280;51715;39.432;-77.518;2024-01-10T07:22:49;96761.26;;;9.02;45.43
65013;BME280;51715;39.432;-77.518;2024-01-10T07:25:18;96762.09;;;8.96;45.40
65013;BME280;51715;39.432;-77.518;2024-01-10T07:27:47;96758.93;;;8.67;44.29
65013;BME280;51715;39.432;-77.518;2024-01-10T07:30:16;96753.98;;;8.60;43.35
65013;BME280;51715;39.432;-77.518;2024-01-10T07:32:45;96759.42;;;8.39;43.75
65013;BME280;51715;39.432;-77.518;2024-01-10T07:35:15;96762.71;;;8.01;43.74
65013;BME280;51715;39.432;-77.518;2024-01-10T07:37:45;96754.36;;;8.60;42.97
65013;BME280;51715;39.432;-77.518;2024-01-10T07:40:15;96760.85;;;8.37;41.72
65013;BME280;51715;39.432;-77.518;2024-01-10T07:42:43;96776.08;;;7.67;42.37
65013;BME280;51715;39.432;-77.518;2024-01-10T07:45:13;96774.06;;;7.64;41.40
65013;BME280;51715;39.432;-77.518;2024-01-10T07:47:42;96777.77;;;8.39;41.88
65013;BME280;51715;39.432;-77.518;2024-01-10T07:50:12;96773.43;;;8.36;41.57
65013;BME280;51715;39.432;-77.518;2024-01-10T07:52:42;96777.56;;;8.74;40.41
65013;BME280;51715;39.432;-77.518;2024-01-10T07:55:10;96778.56;;;7.88;40.66
65013;BME280;51715;39.432;-77.518;2024-01-10T07:57:38;96780.85;;;7.70;41.23
65013;BME280;51715;39.432;-77.518;2024-01-10T08:00:08;96788.95;;;8.10;41.19
65013;BME280;51715;39.432;-77.518;2024-01-10T08:02:36;96798.34;;;8.51;41.35
65013;BME280;51715;39.432;-77.518;2024-01-10T08:05:04;96808.53;;;9.26;40.00
65013;BME280;51715;39.432;-77.518;2024-01-10T08:07:34;96813.82;;;8.80;39.64
65013;BME280;51715;39.432;-77.518;2024-01-10T08:10:02;96825.49;;;8.70;39.60
65013;BME280;51715;39.432;-77.518;2024-01-10T08:12:30;96832.65;;;8.00;41.18
65013;BME280;51715;39.432;-77.518;2024-01-10T08:14:58;96831.46;;;8.49;40.06
65013;BME280;51715;39.432;-77.518;2024-01-10T08:17:26;96834.81;;;8.95;39.95
65013;BME280;51715;39.432;-77.518;2024-01-10T08:19:55;96842.71;;;8.97;39.71
65013;BME280;51715;39.432;-77.518;2024-01-10T08:22:23;96850.05;;;9.28;39.71
65013;BME280;51715;39.432;-77.518;2024-01-10T08:24:55;96855.85;;;8.20;39.48
65013;BME280;51715;39.432;-77.518;2024-01-10T08:27:24;96858.82;;;8.67;39.59
65013;BME280;51715;39.432;-77.518;2024-01-10T08:29:52;96856.61;;;8.29;40.11
65013;BME280;51715;39.432;-77.518;2024-01-10T08:32:22;96861.55;;;8.83;40.23
65013;BME280;51715;39.432;-77.518;2024-01-10T08:34:50;96865.17;;;8.56;39.00
65013;BME280;51715;39.432;-77.518;2024-01-10T08:37:19;96876.44;;;8.26;40.76
65013;BME280;51715;39.432;-77.518;2024-01-10T08:39:47;96875.82;;;8.77;39.72
65013;BME280;51715;39.432;-77.518;2024-01-10T08:42:17;96876.54;;;8.31;38.86
65013;BME280;51715;39.432;-77.518;2024-01-10T08:44:45;96868.76;;;8.38;38.91
65013;BME280;51715;39.432;-77.518;2024-01-10T08:47:14;96862.74;;;9.21;38.82
65013;BME280;51715;39.432;-77.518;2024-01-10T08:49:42;96871.41;;;9.39;38.32
65013;BME280;51715;39.432;-77.518;2024-01-10T08:52:12;96869.52;;;9.54;37.84
65013;BME280;51715;39.432;-77.518;2024-01-10T08:54:41;96865.64;;;9.40;37.66
65013;BME280;51715;39.432;-77.518;2024-01-10T08:57:09;96859.66;;;9.73;37.66
65013;BME280;51715;39.432;-77.518;2024-01-10T08:59:37;96865.68;;;9.08;38.00
65013;BME280;51715;39.432;-77.518;2024-01-10T09:02:09;96856.88;;;9.25;38.19
65013;BME280;51715;39.432;-77.518;2024-01-10T09:04:36;96850.75;;;9.18;38.16
65013;BME280;51715;39.432;-77.518;2024-01-10T09:07:04;96852.32;;;9.08;38.05
65013;BME280;51715;39.432;-77.518;2024-01-10T09:09:33;96844.88;;;9.57;37.97
65013;BME280;51715;39.432;-77.518;2024-01-10T09:12:02;96838.66;;;10.14;37.61
65013;BME280;51715;39.432;-77.518;2024-01-10T09:14:32;96836.45;;;9.96;37.20
65013;BME280;51715;39.432;-77.518;2024-01-10T09:17:00;96837.70;;;9.59;37.47
65013;BME280;51715;39.432;-77.518;2024-01-10T09:19:29;96840.31;;;9.87;37.37
65013;BME280;51715;39.432;-77.518;2024-01-10T09:21:58;96842.20;;;9.99;37.11
65013;BME280;51715;39.432;-77.518;2024-01-10T09:24:25;96848.99;;;9.91;36.34
65013;BME280;51715;39.432;-77.518;2024-01-10T09:26:53;96862.92;;;10.13;36.59
65013;BME280;51715;39.432;-77.518;2024-01-10T09:29:21;96870.09;;;9.74;36.42
65013;BME280;51715;39.432;-77.518;2024-01-10T09:31:49;96874.51;;;9.75;36.40
65013;BME280;51715;39.432;-77.518;2024-01-10T09:34:17;96870.69;;;10.31;36.13
65013;BME280;51715;39.432;-77.518;2024-01-10T09:36:45;96863.56;;;9.82;36.75
65013;BME280;51715;39.432;-77.518;2024-01-10T09:39:13;96861.53;;;9.74;36.31
65013;BME280;51715;39.432;-77.518;2024-01-10T09:41:50;96852.11;;;8.82;36.72
65013;BME280;51715;39.432;-77.518;2024-01-10T09:44:21;96863.16;;;8.90;37.14
65013;BME280;51715;39.432;-77.518;2024-01-10T09:46:53;96875.14;;;9.01;37.74
65013;BME280;51715;39.432;-77.518;2024-01-10T09:49:22;96877.45;;;9.13;37.69
65013;BME280;51715;39.432;-77.518;2024-01-10T09:51:53;96880.66;;;9.19;37.09
65013;BME280;51715;39.432;-77.518;2024-01-10T09:54:21;96897.60;;;9.46;37.11
65013;BME280;51715;39.432;-77.518;2024-01-10T09:56:52;96905.10;;;9.74;36.95
65013;BME280;51715;39.432;-77.518;2024-01-10T09:59:20;96911.03;;;9.05;36.95
65013;BME280;51715;39.432;-77.518;2024-01-10T10:01:49;96912.85;;;7.72;38.84
65013;BME280;51715;39.432;-77.518;2024-01-10T10:04:19;96911.31;;;7.67;39.35
65013;BME280;51715;39.432;-77.518;2024-01-10T10:06:47;96918.94;;;8.94;38.62
65013;BME280;51715;39.432;-77.518;2024-01-10T10:09:16;96916.53;;;8.83;38.10
65013;BME280;51715;39.432;-77.518;2024-01-10T10:11:53;96925.42;;;9.31;37.39
65013;BME280;51715;39.432;-77.518;2024-01-10T10:14:22;96930.25;;;9.65;37.20
65013;BME280;51715;39.432;-77.518;2024-01-10T10:16:50;96938.93;;;9.57;36.85
65013;BME280;51715;39.432;-77.518;2024-01-10T10:19:23;96924.14;;;9.75;36.85
65013;BME280;51715;39.432;-77.518;2024-01-10T10:21:52;96927.17;;;8.87;37.93
65013;BME280;51715;39.432;-77.518;2024-01-10T10:24:21;96926.39;;;9.56;37.28
65013;BME280;51715;39.432;-77.518;2024-01-10T10:26:49;96937.54;;;10.06;36.96
65013;BME280;51715;39.432;-77.518;2024-01-10T10:29:18;96933.37;;;10.08;36.13
65013;BME280;51715;39.432;-77.518;2024-01-10T10:31:48;96937.27;;;9.81;35.95
65013;BME280;51715;39.432;-77.518;2024-01-10T10:34:22;96938.32;;;10.20;36.23
65013;BME280;51715;39.432;-77.518;2024-01-10T10:36:51;96936.46;;;9.39;37.17
65013;BME280;51715;39.432;-77.518;2024-01-10T10:39:19;96927.88;;;9.65;37.09
65013;BME280;51715;39.432;-77.518;2024-01-10T10:41:49;96933.69;;;7.89;36.93
65013;BME280;51715;39.432;-77.518;2024-01-10T10:44:19;96937.52;;;8.90;37.25
65013;BME280;51715;39.432;-77.518;2024-01-10T10:46:54;96953.00;;;8.69;36.22
65013;BME280;51715;39.432;-77.518;2024-01-10T10:49:28;96961.36;;;8.33;35.96
65013;BME280;51715;39.432;-77.518;2024-01-10T10:51:59;96970.73;;;8.41;36.10
65013;BME280;51715;39.432;-77.518;2024-01-10T10:54:29;96987.56;;;8.15;37.24
65013;BME280;51715;39.432;-77.518;2024-01-10T10:57:02;96998.56;;;8.46;36.35
65013;BME280;51715;39.432;-77.518;2024-01-10T10:59:33;97020.77;;;6.10;39.02
65013;BME280;51715;39.432;-77.518;2024-01-10T11:02:02;97018.86;;;6.79;39.07
65013;BME280;51715;39.432;-77.518;2024-01-10T11:04:32;97020.69;;;7.44;37.71
65013;BME280;51715;39.432;-77.518;2024-01-10T11:07:00;97022.00;;;8.06;37.05
65013;BME280;51715;39.432;-77.518;2024-01-10T11:09:28;97019.34;;;8.61;36.05
65013;BME280;51715;39.432;-77.518;2024-01-10T11:12:09;97031.41;;;8.57;35.47
65013;BME280;51715;39.432;-77.518;2024-01-10T11:14:55;97033.20;;;8.54;35.03
65013;BME280;51715;39.432;-77.518;2024-01-10T11:17:41;97044.83;;;8.31;35.43
65013;BME280;51715;39.432;-77.518;2024-01-10T11:20:18;97050.63;;;7.59;36.58
65013;BME280;51715;39.432;-77.518;2024-01-10T11:23:10;97056.52;;;8.59;36.14
65013;BME280;51715;39.432;-77.518;2024-01-10T11:25:44;97059.61;;;8.53;35.65
65013;BME280;51715;39.432;-77.518;2024-01-10T11:28:13;97077.07;;;7.17;36.35
65013;BME280;51715;39.432;-77.518;2024-01-10T11:30:49;97076.32;;;6.85;37.03
65013;BME280;51715;39.432;-77.518;2024-01-10T11:33:21;97081.79;;;6.28;38.68
65013;BME280;51715;39.432;-77.518;2024-01-10T11:36:23;97089.98;;;6.79;38.24
65013;BME280;51715;39.432;-77.518;2024-01-10T11:38:57;97108.60;;;6.56;38.85
65013;BME280;51715;39.432;-77.518;2024-01-10T11:41:28;97128.94;;;4.89;40.55
65013;BME280;51715;39.432;-77.518;2024-01-10T11:44:29;97133.16;;;4.99;41.56
65013;BME280;51715;39.432;-77.518;2024-01-10T11:46:59;97145.14;;;5.27;41.11
65013;BME280;51715;39.432;-77.518;2024-01-10T11:49:29;97146.05;;;5.58;40.50
65013;BME280;51715;39.432;-77.518;2024-01-10T11:52:02;97150.23;;;6.03;40.05
65013;BME280;51715;39.432;-77.518;2024-01-10T11:54:46;97167.40;;;6.09;39.66
65013;BME280;51715;39.432;-77.518;2024-01-10T11:57:20;97167.94;;;5.78;39.56
65013;BME280;51715;39.432;-77.518;2024-01-10T11:59:52;97171.76;;;5.54;40.51
65013;BME280;51715;39.432;-77.518;2024-01-10T12:02:21;97174.29;;;5.01;40.40
65013;BME280;51715;39.432;-77.518;2024-01-10T12:04:54;97173.78;;;4.75;41.53
65013;BME280;51715;39.432;-77.518;2024-01-10T12:07:22;97190.05;;;5.67;41.25
65013;BME280;51715;39.432;-77.518;2024-01-10T12:09:49;97184.53;;;5.92;40.25
65013;BME280;51715;39.432;-77.518;2024-01-10T12:12:17;97199.51;;;6.35;39.90
65013;BME280;51715;39.432;-77.518;2024-01-10T12:14:46;97205.71;;;6.58;39.32
65013;BME280;51715;39.432;-77.518;2024-01-10T12:17:14;97209.52;;;7.26;37.90
65013;BME280;51715;39.432;-77.518;2024-01-10T12:19:42;97224.91;;;6.56;37.80
65013;BME280;51715;39.432;-77.518;2024-01-10T12:22:10;97234.78;;;6.12;38.55
65013;BME280;51715;39.432;-77.518;2024-01-10T12:24:44;97235.11;;;6.55;38.26
65013;BME280;51715;39.432;-77.518;2024-01-10T12:27:16;97237.61;;;6.82;37.32
65013;BME280;51715;39.432;-77.518;2024-01-10T12:29:47;97241.83;;;6.76;37.51
65013;BME280;51715;39.432;-77.518;2024-01-10T12:32:18;97252.24;;;6.07;37.34
65013;BME280;51715;39.432;-77.518;2024-01-10T12:34:48;97248.50;;;5.28;38.39
65013;BME280;51715;39.432;-77.518;2024-01-10T12:37:23;97257.09;;;5.85;38.21
65013;BME280;51715;39.432;-77.518;2024-01-10T12:39:51;97259.07;;;6.05;37.96
65013;BME280;51715;39.432;-77.518;2024-01-10T12:42:18;97262.33;;;5.35;38.11
65013;BME280;51715;39.432;-77.518;2024-01-10T12:44:48;97268.38;;;5.33;38.11
65013;BME280;51715;39.432;-77.518;2024-01-10T12:47:19;97270.29;;;5.50;38.25
65013;BME280;51715;39.432;-77.518;2024-01-10T12:49:48;97272.92;;;5.94;37.57
65013;BME280;51715;39.432;-77.518;2024-01-10T12:52:16;97276.27;;;6.55;37.11
65013;BME280;51715;39.432;-77.518;2024-01-10T12:54:45;97284.75;;;7.03;36.03
65013;BME280;51715;39.432;-77.518;2024-01-10T12:57:14;97298.53;;;6.23;36.12
65013;BME280;51715;39.432;-77.518;2024-01-10T12:59:45;97305.14;;;5.47;36.26